This is the latest recevied weather packets stored in our database for station/object KI4MRC. If no packets are shown the sender has not sent any weather packets the latest 10 day(s).
| Time | Temp. | Humidity | Pressure | Rain* | Wind** | Luminosity | Snow |
|---|---|---|---|---|---|---|---|
| 1777309909 | 30.56° C | 63% | 1014.8 hPa | 0 mm | - | 1119 W/m² | - |
| 1777309607 | 29.44° C | 66% | 1014.9 hPa | 0 mm | - | 1041 W/m² | - |
| 1777309304 | 28.89° C | 68% | 1015 hPa | 0 mm | - | 1071 W/m² | - |
| 1777309002 | 28.89° C | 66% | 1015 hPa | 0 mm | - | 200 W/m² | - |
| 1777308703 | 29.44° C | 65% | 1015 hPa | 0 mm | - | 270 W/m² | - |
| 1777308398 | 28.89° C | 66% | 1015.3 hPa | 0 mm | - | 200 W/m² | - |
| 1777308093 | 28.89° C | 66% | 1015.3 hPa | 0 mm | - | 223 W/m² | - |
| 1777307792 | 30.56° C | 62% | 1015.4 hPa | 0 mm | - | 162 W/m² | - |
| 1777307488 | 31.11° C | 63% | 1015.2 hPa | 0 mm | - | 1026 W/m² | - |
| 1777307186 | 31.11° C | 63% | 1015.2 hPa | 0 mm | - | 1047 W/m² | - |
| 1777306883 | 31.11° C | 61% | 1015.2 hPa | 0 mm | - | 1036 W/m² | - |
| 1777306580 | 31.11° C | 60% | 1015.2 hPa | 0 mm | - | 1016 W/m² | - |
| 1777306276 | 30.56° C | 63% | 1015.2 hPa | 0 mm | - | 717 W/m² | - |
| 1777305971 | 30° C | 64% | 1015.1 hPa | 0 mm | - | 990 W/m² | - |
| 1777305668 | 30.56° C | 63% | 1015.2 hPa | 0 mm | - | 747 W/m² | - |
| 1777305364 | 30° C | 63% | 1015.3 hPa | 0 mm | - | 1019 W/m² | - |
| 1777305064 | 30° C | 63% | 1015.3 hPa | 0 mm | - | 965 W/m² | - |
| 1777304758 | 30.56° C | 63% | 1015.2 hPa | 0 mm | - | 975 W/m² | - |
| 1777304456 | 30° C | 63% | 1015.4 hPa | 0 mm | - | 960 W/m² | - |
| 1777304154 | 30° C | 59% | 1015.3 hPa | 0 mm | - | 205 W/m² | - |
| 1777303850 | 30.56° C | 60% | 1015.5 hPa | 0 mm | - | 898 W/m² | - |
| 1777303548 | 30° C | 62% | 1015.3 hPa | 0 mm | - | 876 W/m² | - |
| 1777303245 | 30° C | 60% | 1015.4 hPa | 0 mm | - | 861 W/m² | - |
| 1777302943 | 30° C | 62% | 1015.3 hPa | 0 mm | - | 888 W/m² | - |
| 1777302639 | 30° C | 64% | 1015.3 hPa | 0 mm | - | 853 W/m² | - |
* Rain latest hour (hover to see other rain measurements)
** Current wind speed in m/s (hover to see current wind gust speed)